createdAt,value
2019-03-22T00:00:39.644Z,87.17
2019-03-22T00:01:39.675Z,87.07
2019-03-22T00:02:39.634Z,86.96
2019-03-22T00:03:39.633Z,86.96
2019-03-22T00:04:39.601Z,86.86
2019-03-22T00:05:39.585Z,87.93
2019-03-22T00:06:39.579Z,87.48
2019-03-22T00:07:39.599Z,87.00
2019-03-22T00:08:39.557Z,87.07
2019-03-22T00:09:39.575Z,87.21
2019-03-22T00:10:39.531Z,87.21
2019-03-22T00:11:39.521Z,87.17
2019-03-22T00:12:39.507Z,87.27
2019-03-22T00:13:39.557Z,87.10
2019-03-22T00:14:39.486Z,87.73
2019-03-22T00:15:39.495Z,87.66
2019-03-22T00:16:39.485Z,87.73
2019-03-22T00:17:39.447Z,87.73
2019-03-22T00:18:39.435Z,87.41
2019-03-22T00:19:39.483Z,87.76
2019-03-22T00:20:39.414Z,87.62
2019-03-22T00:21:39.434Z,87.56
2019-03-22T00:22:39.404Z,87.56
2019-03-22T00:23:39.383Z,87.76
2019-03-22T00:24:39.390Z,87.56
2019-03-22T00:25:39.425Z,87.76
2019-03-22T00:26:39.353Z,86.73
2019-03-22T00:27:39.362Z,86.83
2019-03-22T00:28:39.325Z,86.73
2019-03-22T00:29:39.319Z,87.60
2019-03-22T00:30:39.304Z,87.60
2019-03-22T00:31:39.338Z,87.70
2019-03-22T00:32:39.282Z,87.81
2019-03-22T00:33:39.301Z,88.53
2019-03-22T00:34:39.257Z,88.74
2019-03-22T00:35:39.253Z,88.43
2019-03-22T00:36:39.243Z,88.53
2019-03-22T00:37:39.279Z,88.46
2019-03-22T00:38:39.219Z,88.64
2019-03-22T00:39:39.232Z,88.88
2019-03-22T00:40:39.201Z,88.67
2019-03-22T00:41:39.187Z,88.78
2019-03-22T00:42:39.173Z,88.88
2019-03-22T00:43:39.222Z,89.09
2019-03-22T00:44:39.167Z,88.98
2019-03-22T00:45:39.201Z,88.88
2019-03-22T00:46:39.146Z,89.09
2019-03-22T00:47:39.125Z,88.92
2019-03-22T00:48:39.125Z,89.23
2019-03-22T00:49:39.154Z,89.34
2019-03-22T00:50:39.094Z,89.03
2019-03-22T00:51:39.084Z,89.54
2019-03-22T00:52:39.139Z,89.54
2019-03-22T00:53:39.050Z,89.34
2019-03-22T00:54:39.039Z,89.44
2019-03-22T00:55:39.072Z,89.54
2019-03-22T00:56:39.023Z,89.54
2019-03-22T00:57:39.012Z,89.44
2019-03-22T00:58:39.040Z,89.13
2019-03-22T00:59:38.984Z,89.65
2019-03-22T01:00:38.974Z,89.75
2019-03-22T01:01:39.186Z,89.23
2019-03-22T01:02:38.951Z,89.96
2019-03-22T01:03:38.958Z,90.06
2019-03-22T01:04:38.959Z,89.34
2019-03-22T01:05:38.915Z,89.79
2019-03-22T01:06:38.909Z,89.38
2019-03-22T01:07:38.997Z,89.44
2019-03-22T01:08:38.888Z,89.34
2019-03-22T01:09:38.882Z,89.69
2019-03-22T01:10:38.882Z,89.58
2019-03-22T01:11:38.858Z,89.69
2019-03-22T01:12:38.843Z,90.00
2019-03-22T01:13:38.882Z,90.41
2019-03-22T01:14:38.827Z,90.52
2019-03-22T01:15:38.807Z,89.69
2019-03-22T01:16:38.812Z,89.89
2019-03-22T01:17:38.803Z,90.47
2019-03-22T01:18:38.778Z,90.20
2019-03-22T01:19:38.854Z,90.41
2019-03-22T01:20:38.753Z,90.41
2019-03-22T01:21:38.759Z,90.41
2019-03-22T01:22:38.754Z,90.31
2019-03-22T01:23:38.743Z,90.41
2019-03-22T01:24:38.718Z,90.10
2019-03-22T01:25:38.767Z,90.25
2019-03-22T01:26:38.701Z,90.41
2019-03-22T01:27:40.599Z,90.20
2019-03-22T01:28:38.692Z,90.41
2019-03-22T01:29:38.686Z,90.25
2019-03-22T01:30:38.651Z,90.35
2019-03-22T01:31:38.684Z,90.20
2019-03-22T01:32:38.662Z,90.25
2019-03-22T01:33:38.623Z,90.45
2019-03-22T01:34:38.610Z,90.25
2019-03-22T01:35:38.654Z,90.20
2019-03-22T01:36:38.604Z,90.14
2019-03-22T01:37:38.644Z,90.56
2019-03-22T01:38:38.569Z,89.52
2019-03-22T01:39:38.548Z,89.11
2019-03-22T01:40:38.566Z,89.00
2019-03-22T01:41:38.561Z,88.79
2019-03-22T01:42:38.542Z,88.90
2019-03-22T01:43:38.557Z,88.69
2019-03-22T01:44:38.492Z,89.62
2019-03-22T01:45:38.490Z,90.45
2019-03-22T01:46:38.494Z,90.45
2019-03-22T01:47:38.514Z,90.14
2019-03-22T01:48:38.448Z,90.08
2019-03-22T01:49:38.488Z,89.77
2019-03-22T01:50:38.471Z,89.52
2019-03-22T01:51:38.440Z,90.50
2019-03-22T01:52:38.405Z,90.50
2019-03-22T01:53:38.422Z,90.50
2019-03-22T01:54:38.417Z,90.70
2019-03-22T01:55:38.531Z,91.02
2019-03-22T01:56:38.380Z,91.12
2019-03-22T01:57:38.359Z,91.02
2019-03-22T01:58:38.340Z,91.12
2019-03-22T01:59:38.331Z,90.70
2019-03-22T02:00:38.321Z,90.81
2019-03-22T02:01:38.347Z,91.12
2019-03-22T02:02:38.323Z,91.02
2019-03-22T02:03:38.291Z,91.02
2019-03-22T02:04:38.273Z,91.33
2019-03-22T02:05:38.262Z,90.91
2019-03-22T02:06:38.256Z,90.91
2019-03-22T02:07:38.319Z,91.06
2019-03-22T02:08:38.248Z,91.12
2019-03-22T02:09:38.220Z,91.02
2019-03-22T02:10:38.208Z,91.27
2019-03-22T02:11:38.199Z,90.95
2019-03-22T02:12:38.196Z,91.16
2019-03-22T02:13:38.239Z,91.16
2019-03-22T02:14:38.191Z,91.16
2019-03-22T02:15:38.163Z,91.06
2019-03-22T02:16:38.161Z,91.47
2019-03-22T02:17:38.138Z,91.52
2019-03-22T02:18:38.120Z,91.83
2019-03-22T02:19:38.428Z,91.89
2019-03-22T02:20:38.101Z,91.58
2019-03-22T02:21:38.128Z,91.58
2019-03-22T02:22:38.148Z,91.83
2019-03-22T02:23:38.069Z,91.99
2019-03-22T02:24:38.058Z,92.03
2019-03-22T02:25:38.138Z,92.03
2019-03-22T02:26:38.045Z,91.37
2019-03-22T02:27:38.029Z,91.89
2019-03-22T02:28:38.050Z,91.78
2019-03-22T02:29:38.004Z,91.72
2019-03-22T02:30:37.998Z,92.03
2019-03-22T02:31:38.052Z,91.78
2019-03-22T02:32:37.980Z,91.52
2019-03-22T02:33:37.961Z,91.62
2019-03-22T02:34:37.996Z,91.72
2019-03-22T02:35:37.962Z,91.41
2019-03-22T02:36:37.930Z,91.72
2019-03-22T02:37:38.010Z,91.72
2019-03-22T02:38:37.919Z,91.41
2019-03-22T02:39:38.017Z,91.62
2019-03-22T02:40:37.891Z,91.62
2019-03-22T02:41:37.877Z,91.83
2019-03-22T02:42:37.883Z,91.93
2019-03-22T02:43:37.889Z,91.93
2019-03-22T02:44:37.840Z,91.31
2019-03-22T02:45:37.832Z,91.52
2019-03-22T02:46:37.828Z,91.35
2019-03-22T02:47:37.830Z,91.14
2019-03-22T02:48:37.798Z,91.03
2019-03-22T02:49:37.865Z,91.14
2019-03-22T02:50:37.791Z,91.10
2019-03-22T02:51:37.763Z,91.35
2019-03-22T02:52:37.754Z,90.72
2019-03-22T02:53:37.781Z,91.03
2019-03-22T02:54:37.763Z,91.14
2019-03-22T02:55:37.813Z,91.03
2019-03-22T02:56:37.728Z,91.18
2019-03-22T02:57:37.734Z,91.18
2019-03-22T02:58:37.714Z,91.18
2019-03-22T02:59:37.750Z,91.60
2019-03-22T03:00:37.693Z,91.66
2019-03-22T03:01:37.696Z,91.49
2019-03-22T03:02:37.672Z,91.66
2019-03-22T03:03:37.641Z,91.70
2019-03-22T03:04:37.639Z,91.91
2019-03-22T03:05:37.656Z,91.80
2019-03-22T03:06:37.600Z,92.63
2019-03-22T03:07:37.653Z,93.05
2019-03-22T03:08:37.591Z,92.43
2019-03-22T03:09:37.571Z,92.84
2019-03-22T03:10:37.590Z,92.43
2019-03-22T03:11:37.550Z,92.94
2019-03-22T03:12:37.584Z,92.63
2019-03-22T03:13:37.586Z,92.74
2019-03-22T03:14:37.515Z,92.94
2019-03-22T03:15:37.515Z,92.84
2019-03-22T03:16:37.573Z,92.94
2019-03-22T03:17:37.483Z,93.16
2019-03-22T03:18:37.473Z,93.26
2019-03-22T03:19:37.492Z,93.16
2019-03-22T03:20:37.455Z,92.94
2019-03-22T03:21:37.444Z,92.94
2019-03-22T03:22:37.453Z,92.94
2019-03-22T03:23:37.422Z,92.84
2019-03-22T03:24:37.422Z,92.63
2019-03-22T03:25:37.451Z,92.63
2019-03-22T03:26:37.426Z,92.53
2019-03-22T03:27:37.465Z,92.68
2019-03-22T03:28:37.622Z,92.43
2019-03-22T03:29:37.382Z,92.32
2019-03-22T03:30:37.480Z,92.84
2019-03-22T03:31:37.620Z,92.84
2019-03-22T03:32:37.319Z,92.78
2019-03-22T03:33:37.353Z,92.99
2019-03-22T03:34:37.361Z,92.47
2019-03-22T03:35:37.306Z,92.88
2019-03-22T03:36:37.300Z,93.10
2019-03-22T03:37:37.504Z,92.88
2019-03-22T03:38:37.369Z,92.99
2019-03-22T03:39:37.249Z,92.99
2019-03-22T03:40:37.232Z,92.78
2019-03-22T03:41:37.264Z,93.30
2019-03-22T03:42:37.226Z,93.26
2019-03-22T03:43:37.251Z,93.30
2019-03-22T03:44:37.227Z,93.30
2019-03-22T03:45:37.222Z,93.30
2019-03-22T03:46:37.176Z,93.20
2019-03-22T03:47:37.162Z,93.05
2019-03-22T03:48:37.161Z,92.84
2019-03-22T03:49:37.219Z,93.20
2019-03-22T03:50:37.129Z,92.88
2019-03-22T03:51:37.208Z,92.84
2019-03-22T03:52:39.469Z,92.63
2019-03-22T03:53:37.093Z,92.63
2019-03-22T03:54:37.105Z,92.74
2019-03-22T03:55:37.141Z,92.88
2019-03-22T03:56:37.106Z,92.68
2019-03-22T03:57:37.056Z,92.47
2019-03-22T03:58:51.615Z,92.43
2019-03-22T03:59:38.035Z,92.57
2019-03-22T04:00:37.031Z,92.74
2019-03-22T04:01:37.056Z,92.47
2019-03-22T04:02:37.048Z,92.47
2019-03-22T04:03:36.994Z,92.57
2019-03-22T04:04:36.985Z,92.57
2019-03-22T04:05:36.969Z,92.47
2019-03-22T04:06:36.973Z,92.47
2019-03-22T04:07:36.995Z,92.57
2019-03-22T04:08:36.935Z,92.26
2019-03-22T04:09:36.952Z,91.85
2019-03-22T04:10:36.913Z,91.78
2019-03-22T04:11:36.902Z,91.85
2019-03-22T04:12:36.885Z,91.89
2019-03-22T04:13:36.981Z,91.89
2019-03-22T04:14:36.878Z,92.20
2019-03-22T04:15:36.873Z,91.78
2019-03-22T04:16:36.870Z,92.20
2019-03-22T04:17:36.843Z,92.30
2019-03-22T04:18:36.826Z,92.61
2019-03-22T04:19:36.863Z,93.24
2019-03-22T04:20:36.798Z,92.97
2019-03-22T04:21:36.856Z,92.93
2019-03-22T04:22:36.777Z,93.03
2019-03-22T04:23:36.775Z,92.66
2019-03-22T04:24:36.752Z,92.86
2019-03-22T04:25:36.827Z,92.86
2019-03-22T04:26:36.737Z,92.55
2019-03-22T04:27:36.735Z,92.97
2019-03-22T04:28:36.795Z,93.07
2019-03-22T04:29:36.704Z,93.29
2019-03-22T04:30:36.820Z,92.97
2019-03-22T04:31:38.773Z,93.39
2019-03-22T04:32:36.665Z,93.39
2019-03-22T04:33:36.656Z,92.97
2019-03-22T04:34:36.715Z,93.49
2019-03-22T04:35:36.696Z,93.80
2019-03-22T04:36:36.717Z,93.07
2019-03-22T04:37:37.012Z,93.29
2019-03-22T04:38:36.734Z,93.49
2019-03-22T04:39:36.605Z,92.86
2019-03-22T04:40:37.089Z,92.86
2019-03-22T04:41:36.612Z,92.76
2019-03-22T04:42:36.570Z,92.39
2019-03-22T04:43:36.901Z,92.18
2019-03-22T04:44:36.619Z,91.97
2019-03-22T04:45:36.616Z,92.08
2019-03-22T04:46:36.643Z,91.87
2019-03-22T04:47:36.601Z,92.08
2019-03-22T04:48:36.547Z,91.97
2019-03-22T04:49:36.795Z,92.91
2019-03-22T04:51:58.158Z,92.80
2019-03-22T04:52:58.066Z,92.60
2019-03-22T04:53:58.045Z,92.91
2019-03-22T04:54:58.060Z,93.01
2019-03-22T04:55:58.022Z,92.80
2019-03-22T04:56:57.997Z,93.12
2019-03-22T04:57:57.981Z,93.01
2019-03-22T04:58:57.990Z,93.33
2019-03-22T04:59:57.982Z,93.54
2019-03-22T05:00:58.003Z,93.54
2019-03-22T05:01:57.947Z,93.58
2019-03-22T05:02:57.935Z,93.54
2019-03-22T05:03:59.121Z,93.64
2019-03-22T05:04:57.907Z,93.54
2019-03-22T05:05:57.899Z,93.64
2019-03-22T05:06:57.937Z,93.43
2019-03-22T05:07:57.875Z,93.33
2019-03-22T05:08:57.879Z,93.33
2019-03-22T05:09:57.872Z,93.68
2019-03-22T05:10:57.844Z,93.48
2019-03-22T05:11:57.832Z,93.48
2019-03-22T05:12:57.873Z,94.06
2019-03-22T05:13:57.814Z,93.64
2019-03-22T05:14:57.802Z,93.85
2019-03-22T05:15:57.829Z,93.74
2019-03-22T05:16:57.790Z,93.85
2019-03-22T05:17:57.770Z,93.68
2019-03-22T05:18:57.800Z,93.43
2019-03-22T05:19:57.747Z,93.23
2019-03-22T05:20:57.738Z,93.68
2019-03-22T05:21:57.750Z,93.43
2019-03-22T05:22:57.722Z,93.33
2019-03-22T05:23:57.703Z,93.05
2019-03-22T05:24:57.721Z,93.43
2019-03-22T05:25:57.680Z,93.43
2019-03-22T05:26:57.678Z,93.01
2019-03-22T05:27:57.688Z,92.95
2019-03-22T05:28:57.655Z,93.05
2019-03-22T05:29:57.642Z,93.16
2019-03-22T05:30:57.680Z,93.43
2019-03-22T05:31:57.617Z,93.43
2019-03-22T05:32:57.631Z,93.95
2019-03-22T05:33:57.598Z,93.95
2019-03-22T05:34:57.635Z,93.74
2019-03-22T05:35:57.574Z,94.06
2019-03-22T05:36:57.597Z,93.54
2019-03-22T05:37:57.568Z,93.43
2019-03-22T05:38:57.544Z,93.43
2019-03-22T05:39:57.533Z,93.43
2019-03-22T05:40:57.555Z,93.64
2019-03-22T05:41:57.562Z,93.70
2019-03-22T05:42:57.527Z,94.01
2019-03-22T05:43:57.509Z,94.01
2019-03-22T05:44:57.497Z,93.60
2019-03-22T05:45:57.475Z,93.70
2019-03-22T05:46:57.507Z,93.29
2019-03-22T05:47:57.450Z,93.39
2019-03-22T05:48:57.478Z,93.60
2019-03-22T05:49:57.420Z,93.39
2019-03-22T05:50:57.407Z,93.29
2019-03-22T05:51:57.412Z,93.35
2019-03-22T05:52:57.434Z,92.82
2019-03-22T05:53:57.380Z,92.76
2019-03-22T05:54:57.424Z,92.55
2019-03-22T05:55:57.356Z,92.55
2019-03-22T05:56:57.344Z,92.55
2019-03-22T05:57:57.334Z,93.18
2019-03-22T05:58:57.414Z,92.86
2019-03-22T05:59:57.419Z,92.76
2019-03-22T06:00:57.375Z,92.66
2019-03-22T06:01:57.285Z,92.76
2019-03-22T06:02:57.275Z,92.55
2019-03-22T06:03:57.282Z,93.07
2019-03-22T06:04:57.251Z,92.66
2019-03-22T06:05:57.244Z,92.66
2019-03-22T06:06:57.374Z,93.07
2019-03-22T06:07:57.321Z,92.97
2019-03-22T06:08:57.210Z,92.55
2019-03-22T06:09:57.198Z,92.86
2019-03-22T06:10:57.192Z,91.72
2019-03-22T06:11:57.184Z,92.03
2019-03-22T06:12:57.213Z,91.93
2019-03-22T06:13:57.171Z,91.78
2019-03-22T06:14:57.147Z,92.03
2019-03-22T06:15:57.136Z,91.52
2019-03-22T06:16:57.128Z,91.27
2019-03-22T06:17:57.113Z,91.47
2019-03-22T06:18:57.161Z,91.37
2019-03-22T06:19:57.096Z,91.16
2019-03-22T06:20:57.078Z,91.06
2019-03-22T06:21:57.069Z,91.37
2019-03-22T06:22:57.061Z,91.22
2019-03-22T06:23:57.060Z,91.12
2019-03-22T06:24:57.086Z,91.43
2019-03-22T06:25:57.028Z,91.22
2019-03-22T06:26:57.023Z,91.12
2019-03-22T06:27:57.135Z,91.33
2019-03-22T06:28:57.023Z,91.39
2019-03-22T06:29:57.007Z,91.91
2019-03-22T06:30:57.053Z,91.70
2019-03-22T06:31:57.054Z,92.32
2019-03-22T06:32:57.024Z,92.11
2019-03-22T06:33:56.963Z,92.07
2019-03-22T06:34:56.947Z,91.80
2019-03-22T06:35:56.988Z,91.66
2019-03-22T06:36:56.973Z,91.66
2019-03-22T06:37:56.914Z,91.45
2019-03-22T06:38:56.912Z,91.86
2019-03-22T06:39:56.875Z,91.86
2019-03-22T06:40:56.916Z,91.83
2019-03-22T06:41:56.882Z,91.62
2019-03-22T06:42:56.893Z,91.37
2019-03-22T06:43:56.864Z,91.16
2019-03-22T06:44:56.837Z,91.06
2019-03-22T06:45:56.826Z,91.16
2019-03-22T06:46:56.817Z,91.02
2019-03-22T06:47:56.807Z,90.60
2019-03-22T06:48:56.927Z,90.29
2019-03-22T06:49:56.763Z,90.45
2019-03-22T06:50:56.752Z,89.52
2019-03-22T06:51:56.742Z,89.00
2019-03-22T06:52:56.737Z,88.86
2019-03-22T06:53:56.726Z,89.17
2019-03-22T06:54:56.743Z,89.17
2019-03-22T06:55:56.697Z,89.07
2019-03-22T06:56:56.686Z,90.47
2019-03-22T06:57:56.687Z,90.37
2019-03-22T06:58:56.668Z,90.37
2019-03-22T07:00:05.920Z,90.06
2019-03-22T07:00:57.806Z,90.02
2019-03-22T07:01:56.699Z,90.06
2019-03-22T07:02:56.907Z,90.23
2019-03-22T07:03:57.161Z,90.06
2019-03-22T07:04:56.735Z,90.44
2019-03-22T07:05:56.589Z,89.40
2019-03-22T07:06:56.640Z,88.74
2019-03-22T07:07:56.566Z,89.15
2019-03-22T07:08:56.637Z,88.64
2019-03-22T07:09:56.566Z,89.04
2019-03-22T07:10:56.539Z,88.74
2019-03-22T07:11:56.595Z,88.18
2019-03-22T07:12:56.546Z,88.84
2019-03-22T07:13:56.529Z,88.64
2019-03-22T07:14:56.499Z,87.46
2019-03-22T07:15:56.482Z,87.66
2019-03-22T07:16:58.746Z,87.10
2019-03-22T07:17:56.523Z,87.21
2019-03-22T07:18:56.681Z,86.65
2019-03-22T07:19:56.479Z,86.55
2019-03-22T07:20:56.426Z,86.44
2019-03-22T07:21:56.416Z,86.10
2019-03-22T07:22:56.482Z,86.20
2019-03-22T07:23:56.392Z,86.20
2019-03-22T07:24:56.435Z,86.68
2019-03-22T07:25:56.369Z,86.68
2019-03-22T07:26:56.354Z,86.57
2019-03-22T07:27:56.356Z,86.84
2019-03-22T07:28:56.337Z,86.94
2019-03-22T07:29:56.321Z,86.84
2019-03-22T07:30:56.365Z,87.01
2019-03-22T07:31:56.303Z,87.05
2019-03-22T07:32:56.289Z,86.74
2019-03-22T07:33:56.284Z,86.90
2019-03-22T07:34:56.280Z,85.46
2019-03-22T07:35:56.257Z,85.57
2019-03-22T07:36:56.317Z,84.84
2019-03-22T07:37:56.233Z,84.43
2019-03-22T07:38:56.233Z,85.05
2019-03-22T07:39:56.217Z,84.53
2019-03-22T07:40:56.223Z,84.84
2019-03-22T07:41:56.189Z,84.80
2019-03-22T07:42:56.236Z,85.22
2019-03-22T07:43:56.213Z,85.42
2019-03-22T07:44:56.260Z,83.98
2019-03-22T07:45:56.295Z,84.19
2019-03-22T07:46:56.136Z,83.56
2019-03-22T07:47:56.128Z,84.14
2019-03-22T07:48:56.196Z,84.05
2019-03-22T07:49:56.150Z,84.45
2019-03-22T07:50:56.115Z,84.93
2019-03-22T07:51:56.200Z,84.52
2019-03-22T07:52:56.077Z,84.48
2019-03-22T07:53:56.064Z,84.38
2019-03-22T07:54:56.107Z,84.48
2019-03-22T07:55:56.036Z,84.48
2019-03-22T07:56:56.032Z,84.48
2019-03-22T07:57:56.025Z,82.28
2019-03-22T07:58:56.117Z,82.59
2019-03-22T07:59:55.994Z,83.51
2019-03-22T08:00:56.029Z,82.79
2019-03-22T08:01:56.032Z,83.48
2019-03-22T08:02:56.147Z,82.86
2019-03-22T08:03:55.953Z,81.62
2019-03-22T08:04:55.939Z,81.42
2019-03-22T08:05:55.929Z,81.38
2019-03-22T08:06:55.992Z,79.63
2019-03-22T08:07:56.209Z,79.43
2019-03-22T08:08:55.895Z,80.05
2019-03-22T08:09:55.982Z,79.29
2019-03-22T08:10:55.914Z,80.11
2019-03-22T08:11:55.909Z,79.05
2019-03-22T08:12:55.937Z,78.53
2019-03-22T08:13:55.849Z,79.36
2019-03-22T08:14:55.849Z,77.98
2019-03-22T08:15:57.528Z,79.32
2019-03-22T08:16:55.835Z,79.49
2019-03-22T08:17:57.067Z,79.38
2019-03-22T08:18:55.858Z,79.66
2019-03-22T08:19:57.282Z,79.66
2019-03-22T08:20:55.763Z,79.75
2019-03-22T08:21:55.752Z,80.03
2019-03-22T08:22:55.741Z,78.25
2019-03-22T08:23:55.727Z,78.25
2019-03-22T08:24:55.781Z,77.39
2019-03-22T08:25:55.729Z,75.86
2019-03-22T08:26:55.701Z,75.24
2019-03-22T08:27:55.710Z,75.62
2019-03-22T08:28:55.677Z,74.56
2019-03-22T08:29:55.663Z,74.05
2019-03-22T08:30:55.690Z,73.03
2019-03-22T08:31:55.664Z,72.41
2019-03-22T08:32:55.632Z,70.95
2019-03-22T08:33:55.630Z,71.25
2019-03-22T08:34:55.608Z,70.75
2019-03-22T08:35:55.608Z,70.75
2019-03-22T08:36:55.643Z,70.92
2019-03-22T08:37:55.595Z,69.59
2019-03-22T08:38:55.562Z,70.68
2019-03-22T08:39:55.964Z,69.86
2019-03-22T08:40:55.565Z,70.27
2019-03-22T08:41:55.614Z,68.94
2019-03-22T08:42:55.558Z,69.24
2019-03-22T08:43:55.526Z,69.04
2019-03-22T08:44:55.491Z,68.80
2019-03-22T08:45:55.497Z,69.93
2019-03-22T08:46:55.487Z,68.77
2019-03-22T08:47:55.511Z,68.77
2019-03-22T08:48:55.580Z,68.95
2019-03-22T08:49:55.479Z,67.52
2019-03-22T08:50:55.474Z,67.21
2019-03-22T08:51:55.414Z,66.67
2019-03-22T08:52:55.406Z,66.91
2019-03-22T08:53:55.874Z,67.38
2019-03-22T08:54:55.433Z,66.97
2019-03-22T08:55:55.372Z,67.69
2019-03-22T08:56:55.429Z,67.05
2019-03-22T08:57:55.347Z,66.64
2019-03-22T08:58:55.342Z,66.85
2019-03-22T08:59:55.345Z,65.72
2019-03-22T09:00:57.894Z,65.52
2019-03-22T09:01:55.361Z,64.78
2019-03-22T09:02:55.309Z,64.37
2019-03-22T09:03:55.282Z,64.44
2019-03-22T09:04:55.280Z,64.47
2019-03-22T09:05:55.265Z,64.34
2019-03-22T09:06:55.281Z,64.64
2019-03-22T09:07:55.281Z,65.25
2019-03-22T09:08:55.299Z,64.51
2019-03-22T09:09:55.264Z,63.90
2019-03-22T09:10:55.204Z,63.49
2019-03-22T09:11:55.194Z,64.41
2019-03-22T09:12:55.222Z,63.80
2019-03-22T09:13:55.172Z,63.70
2019-03-22T09:14:55.182Z,64.51
2019-03-22T09:15:55.182Z,64.31
2019-03-22T09:16:55.159Z,63.46
2019-03-22T09:17:55.152Z,64.18
2019-03-22T09:18:55.166Z,63.46
2019-03-22T09:19:55.155Z,64.07
2019-03-22T09:20:55.151Z,61.60
2019-03-22T09:21:55.122Z,62.93
2019-03-22T09:22:55.115Z,61.20
2019-03-22T09:23:55.100Z,62.41
2019-03-22T09:24:55.137Z,61.20
2019-03-22T09:25:55.079Z,60.97
2019-03-22T09:26:55.066Z,60.99
2019-03-22T09:27:55.051Z,60.83
2019-03-22T09:28:55.065Z,61.75
2019-03-22T09:29:55.009Z,59.82
2019-03-22T09:30:55.196Z,59.72
2019-03-22T09:31:54.979Z,59.31
2019-03-22T09:32:54.978Z,59.48
2019-03-22T09:33:54.950Z,61.55
2019-03-22T09:34:54.995Z,61.41
2019-03-22T09:35:54.930Z,61.82
2019-03-22T09:36:54.979Z,60.91
2019-03-22T09:37:54.926Z,60.71
2019-03-22T09:38:54.934Z,60.78
2019-03-22T09:39:54.891Z,61.49
2019-03-22T09:40:54.922Z,61.29
2019-03-22T09:41:54.862Z,59.79
2019-03-22T09:42:54.939Z,59.26
2019-03-22T09:43:54.838Z,59.28
2019-03-22T09:44:54.840Z,60.78
2019-03-22T09:45:54.855Z,59.26
2019-03-22T09:46:54.822Z,59.33
2019-03-22T09:47:54.790Z,59.33
2019-03-22T09:48:54.825Z,57.68
2019-03-22T09:49:54.788Z,56.77
2019-03-22T09:50:54.787Z,55.76
2019-03-22T09:51:55.292Z,56.57
2019-03-22T09:52:54.741Z,56.54
2019-03-22T09:53:54.780Z,56.03
2019-03-22T09:54:54.844Z,56.13
2019-03-22T09:55:54.703Z,54.69
2019-03-22T09:56:54.707Z,54.61
2019-03-22T09:57:54.719Z,54.08
2019-03-22T09:58:54.676Z,54.89
2019-03-22T09:59:54.661Z,54.08
2019-03-22T10:00:54.744Z,54.38
2019-03-22T10:01:54.642Z,54.86
2019-03-22T10:02:54.631Z,52.13
2019-03-22T10:03:54.682Z,52.84
2019-03-22T10:04:54.627Z,52.94
2019-03-22T10:05:54.625Z,52.84
2019-03-22T10:06:54.651Z,52.41
2019-03-22T10:07:54.564Z,51.70
2019-03-22T10:08:54.559Z,52.69
2019-03-22T10:09:54.567Z,52.99
2019-03-22T10:10:54.538Z,52.48
2019-03-22T10:11:54.601Z,52.99
2019-03-22T10:12:54.674Z,52.79
2019-03-22T10:13:54.556Z,52.79
2019-03-22T10:14:54.496Z,53.50
2019-03-22T10:15:54.532Z,52.99
2019-03-22T10:16:54.471Z,53.27
2019-03-22T10:17:54.453Z,52.56
2019-03-22T10:18:54.521Z,52.76
2019-03-22T10:19:54.461Z,52.26
2019-03-22T10:20:54.428Z,52.64
2019-03-22T10:21:54.477Z,51.05
2019-03-22T10:22:54.433Z,50.74
2019-03-22T10:23:54.429Z,51.25
2019-03-22T10:24:54.474Z,51.45
2019-03-22T10:25:54.429Z,50.16
2019-03-22T10:26:54.355Z,51.25
2019-03-22T10:27:54.436Z,50.34
2019-03-22T10:28:54.391Z,51.55
2019-03-22T10:29:54.336Z,50.34
2019-03-22T10:30:54.347Z,51.15
2019-03-22T10:31:54.316Z,51.45
2019-03-22T10:32:54.295Z,52.46
2019-03-22T10:33:54.303Z,52.26
2019-03-22T10:34:54.272Z,51.65
2019-03-22T10:35:54.271Z,51.57
2019-03-22T10:36:54.328Z,51.98
2019-03-22T10:38:00.412Z,51.45
2019-03-22T10:38:55.261Z,53.27
2019-03-22T10:39:54.230Z,52.87
2019-03-22T10:40:54.228Z,52.28
2019-03-22T10:41:54.189Z,50.97
2019-03-22T10:42:54.231Z,52.39
2019-03-22T10:43:54.263Z,52.89
2019-03-22T10:44:54.174Z,52.28
2019-03-22T10:45:54.168Z,52.76
2019-03-22T10:46:54.298Z,51.55
2019-03-22T10:47:54.129Z,52.64
2019-03-22T10:48:54.146Z,51.15
2019-03-22T10:49:54.101Z,51.83
2019-03-22T10:50:54.221Z,51.53
2019-03-22T10:51:57.392Z,51.83
2019-03-22T10:52:54.070Z,51.23
2019-03-22T10:53:54.103Z,51.32
2019-03-22T10:54:54.078Z,51.40
2019-03-22T10:55:54.040Z,51.10
2019-03-22T10:56:54.073Z,50.59
2019-03-22T10:57:55.465Z,50.19
2019-03-22T10:58:54.232Z,50.90
2019-03-22T10:59:54.014Z,50.07
2019-03-22T11:00:54.016Z,50.16
2019-03-22T11:02:03.070Z,50.27
2019-03-22T11:02:54.957Z,50.07
2019-03-22T11:03:54.055Z,49.87
2019-03-22T11:04:53.939Z,50.35
2019-03-22T11:05:53.924Z,50.35
2019-03-22T11:06:53.952Z,49.54
2019-03-22T11:07:53.903Z,49.05
2019-03-22T11:08:53.919Z,49.56
2019-03-22T11:09:53.879Z,48.15
2019-03-22T11:10:53.869Z,50.35
2019-03-22T11:11:53.881Z,49.13
2019-03-22T11:12:53.877Z,48.33
2019-03-22T11:13:53.837Z,48.83
2019-03-22T11:14:53.840Z,49.04
2019-03-22T11:15:53.814Z,48.33
2019-03-22T11:16:53.810Z,47.90
2019-03-22T11:17:54.203Z,48.30
2019-03-22T11:18:53.896Z,48.30
2019-03-22T11:19:53.770Z,48.30
2019-03-22T11:20:53.765Z,48.10
2019-03-22T11:21:53.782Z,47.90
2019-03-22T11:22:53.740Z,46.69
2019-03-22T11:23:53.728Z,47.70
2019-03-22T11:24:53.762Z,48.18
2019-03-22T11:26:00.279Z,48.06
2019-03-22T11:26:54.690Z,47.55
2019-03-22T11:27:53.682Z,48.06
2019-03-22T11:28:53.669Z,47.45
2019-03-22T11:29:53.663Z,46.45
2019-03-22T11:30:53.711Z,46.14
2019-03-22T11:31:53.636Z,45.14
2019-03-22T11:32:53.625Z,45.97
2019-03-22T11:33:53.616Z,45.86
2019-03-22T11:34:53.603Z,45.66
2019-03-22T11:35:53.599Z,45.76
2019-03-22T11:36:53.660Z,45.66
2019-03-22T11:37:53.569Z,45.26
2019-03-22T11:38:53.561Z,46.85
2019-03-22T11:39:53.545Z,45.94
2019-03-22T11:40:53.537Z,45.03
2019-03-22T11:41:53.530Z,45.64
2019-03-22T11:42:53.572Z,46.14
2019-03-22T11:43:53.505Z,45.03
2019-03-22T11:44:53.609Z,44.92
2019-03-22T11:45:53.562Z,45.42
2019-03-22T11:46:53.473Z,45.90
2019-03-22T11:47:53.509Z,44.89
2019-03-22T11:48:53.490Z,42.98
2019-03-22T11:49:53.443Z,44.11
2019-03-22T11:50:53.431Z,46.00
2019-03-22T11:51:53.431Z,44.29
2019-03-22T11:52:53.401Z,42.15
2019-03-22T11:53:53.396Z,42.96
2019-03-22T11:54:53.414Z,43.26
2019-03-22T11:55:53.370Z,43.16
2019-03-22T11:56:53.411Z,43.36
2019-03-22T11:57:53.373Z,43.26
2019-03-22T11:58:53.372Z,44.07
2019-03-22T11:59:53.327Z,42.15
2019-03-22T12:00:53.355Z,41.45
2019-03-22T12:01:53.307Z,41.55
2019-03-22T12:02:53.298Z,41.35
2019-03-22T12:03:53.283Z,42.15
2019-03-22T12:04:53.275Z,40.64
2019-03-22T12:05:53.269Z,40.95
2019-03-22T12:06:53.301Z,40.84
2019-03-22T12:07:53.239Z,40.73
2019-03-22T12:08:53.234Z,39.92
2019-03-22T12:09:53.214Z,40.92
2019-03-22T12:10:53.212Z,41.23
2019-03-22T12:11:53.199Z,40.30
2019-03-22T12:12:53.220Z,40.53
2019-03-22T12:13:53.175Z,40.61
2019-03-22T12:14:53.167Z,39.80
2019-03-22T12:15:53.154Z,38.98
2019-03-22T12:16:53.138Z,39.38
2019-03-22T12:17:53.136Z,39.06
2019-03-22T12:18:53.230Z,38.98
2019-03-22T12:19:53.109Z,39.47
2019-03-22T12:20:53.099Z,38.54
2019-03-22T12:21:53.092Z,37.34
2019-03-22T12:22:53.071Z,38.04
2019-03-22T12:23:53.073Z,38.32
2019-03-22T12:24:53.077Z,38.62
2019-03-22T12:25:53.036Z,38.51
2019-03-22T12:26:53.026Z,37.10
2019-03-22T12:27:53.022Z,37.59
2019-03-22T12:28:53.012Z,38.39
2019-03-22T12:29:53.484Z,38.39
2019-03-22T12:30:53.188Z,36.57
2019-03-22T12:31:52.981Z,36.66
2019-03-22T12:32:52.962Z,37.55
2019-03-22T12:33:52.965Z,36.53
2019-03-22T12:34:52.940Z,36.51
2019-03-22T12:35:52.932Z,35.80
2019-03-22T12:36:53.002Z,35.71
2019-03-22T12:37:52.929Z,36.11
2019-03-22T12:38:52.892Z,35.89
2019-03-22T12:39:52.891Z,35.80
2019-03-22T12:40:52.915Z,36.08
2019-03-22T12:41:52.864Z,35.64
2019-03-22T12:42:52.913Z,34.76
2019-03-22T12:43:52.846Z,35.24
2019-03-22T12:44:52.858Z,34.26
2019-03-22T12:45:52.819Z,34.25
2019-03-22T12:46:52.838Z,34.83
2019-03-22T12:47:52.799Z,35.31
2019-03-22T12:48:52.838Z,34.61
2019-03-22T12:49:52.779Z,34.63
2019-03-22T12:50:52.766Z,34.43
2019-03-22T12:51:52.757Z,34.81
2019-03-22T12:52:52.773Z,35.19
2019-03-22T12:53:52.738Z,34.30